KBDR/BDR METAR and TAF weather

Enter ICAO airport designator
Station Type Date Time Source
KBDR METAR 2020/06/06 20:52 UTC NOAA

KBDR 062052Z 22010KT 10SM CLR 24/18 A2966 RMK AO2 LTG DSNT E SLP042 60000 T02390183 56012


Station Type Date Time Source
KBDR Decoded METAR 2020/06/06 20:52 UTC NOAA

SIKORSKY MEMORIAL AIRPORT, CT, United States (KBDR) 41-10N 073-08W 7M
Jun 06, 2020 - 04:52 PM EDT / 2020.06.06 2052 UTC
Wind: from the SW (220 degrees) at 12 MPH (10 KT):0
Visibility: 10 mile(s):0
Sky conditions: clear
Weather: Lightning observed
Temperature: 75.0 F (23.9 C)
Dew Point: 64.9 F (18.3 C)
Relative Humidity: 70%
Pressure (altimeter): 29.66 in. Hg (1004 hPa)
Pressure tendency: 0.04 inches (1.2 hPa) lower than three hours ago
ob: KBDR 062052Z 22010KT 10SM CLR 24/18 A2966 RMK AO2 LTG DSNT E SLP042 60000 T02390183 56012
cycle: 21

Station Type Date Time Source
KBDR TAF 2020/06/06 21:33 UTC NOAA

TAF
AMD KBDR 062030Z 0621/0718 23011KT P6SM SCT060 SCT100
FM062200 33010KT P6SM FEW060 FEW100
FM070300 34007KT P6SM FEW060 FEW100
FM071300 34011G18KT P6SM SKC

Example: see airport list